sensor_id;sensor_type;location;lat;lon;timestamp;pressure;altitude;pressure_sealevel;temperature;humidity
50518;BME280;37075;44.084;2.962;2024-02-26T06:57:02;95964.72;;;8.91;74.05
50518;BME280;37075;44.084;2.962;2024-02-26T06:59:48;95970.56;;;8.93;74.07
50518;BME280;37075;44.084;2.962;2024-02-26T07:02:34;95972.88;;;8.91;73.39
50518;BME280;37075;44.084;2.962;2024-02-26T07:05:20;95967.44;;;8.91;73.66
50518;BME280;37075;44.084;2.962;2024-02-26T07:08:06;95977.22;;;8.95;73.20
50518;BME280;37075;44.084;2.962;2024-02-26T07:10:52;95970.63;;;8.96;73.20
50518;BME280;37075;44.084;2.962;2024-02-26T07:13:40;95978.47;;;9.02;73.45
50518;BME280;37075;44.084;2.962;2024-02-26T07:16:26;95990.13;;;9.02;73.45
50518;BME280;37075;44.084;2.962;2024-02-26T07:19:13;95995.50;;;8.99;73.49
50518;BME280;37075;44.084;2.962;2024-02-26T07:21:59;96012.50;;;8.92;73.52
50518;BME280;37075;44.084;2.962;2024-02-26T07:24:45;96006.66;;;8.90;73.20
50518;BME280;37075;44.084;2.962;2024-02-26T07:27:31;96007.06;;;8.92;73.83
50518;BME280;37075;44.084;2.962;2024-02-26T07:30:19;96007.84;;;8.92;74.01
50518;BME280;37075;44.084;2.962;2024-02-26T07:33:05;96012.13;;;8.93;73.73
50518;BME280;37075;44.084;2.962;2024-02-26T07:35:51;96017.22;;;8.95;73.66
50518;BME280;37075;44.084;2.962;2024-02-26T07:38:38;96029.66;;;8.96;73.50
50518;BME280;37075;44.084;2.962;2024-02-26T07:41:24;96033.94;;;8.97;73.91
50518;BME280;37075;44.084;2.962;2024-02-26T07:44:10;96042.94;;;9.01;74.18
50518;BME280;37075;44.084;2.962;2024-02-26T07:46:58;96034.31;;;8.95;73.93
50518;BME280;37075;44.084;2.962;2024-02-26T07:49:44;96048.69;;;8.96;74.40
50518;BME280;37075;44.084;2.962;2024-02-26T07:52:30;96044.75;;;8.93;75.02
50518;BME280;37075;44.084;2.962;2024-02-26T07:55:16;96048.56;;;8.89;74.41
50518;BME280;37075;44.084;2.962;2024-02-26T07:58:02;96046.59;;;8.86;74.35
50518;BME280;37075;44.084;2.962;2024-02-26T08:00:49;96060.59;;;8.88;74.59
50518;BME280;37075;44.084;2.962;2024-02-26T08:03:38;96057.00;;;8.84;75.08
50518;BME280;37075;44.084;2.962;2024-02-26T08:06:24;96059.31;;;8.82;76.09
50518;BME280;37075;44.084;2.962;2024-02-26T08:09:10;96067.81;;;8.80;75.72
50518;BME280;37075;44.084;2.962;2024-02-26T08:11:57;96055.63;;;8.71;75.53
50518;BME280;37075;44.084;2.962;2024-02-26T08:14:43;96053.63;;;8.68;75.50
50518;BME280;37075;44.084;2.962;2024-02-26T08:17:29;96054.72;;;8.63;75.37
50518;BME280;37075;44.084;2.962;2024-02-26T08:20:19;96059.84;;;8.68;75.43
50518;BME280;37075;44.084;2.962;2024-02-26T08:23:05;96052.19;;;8.74;75.47
50518;BME280;37075;44.084;2.962;2024-02-26T08:25:51;96046.50;;;8.82;75.44
50518;BME280;37075;44.084;2.962;2024-02-26T08:28:37;96061.38;;;8.88;75.01
50518;BME280;37075;44.084;2.962;2024-02-26T08:31:23;96058.53;;;8.81;75.98
50518;BME280;37075;44.084;2.962;2024-02-26T08:34:09;96055.38;;;8.79;75.97
50518;BME280;37075;44.084;2.962;2024-02-26T08:36:57;96058.78;;;8.73;76.37
50518;BME280;37075;44.084;2.962;2024-02-26T08:39:42;96059.44;;;8.66;77.01
50518;BME280;37075;44.084;2.962;2024-02-26T08:42:30;96053.59;;;8.64;76.98
50518;BME280;37075;44.084;2.962;2024-02-26T08:45:16;96064.50;;;8.68;76.82
50518;BME280;37075;44.084;2.962;2024-02-26T08:48:02;96059.13;;;8.71;76.88
50518;BME280;37075;44.084;2.962;2024-02-26T08:50:49;96068.00;;;8.68;76.48
50518;BME280;37075;44.084;2.962;2024-02-26T08:53:36;96058.16;;;8.60;76.27
50518;BME280;37075;44.084;2.962;2024-02-26T08:56:22;96052.75;;;8.60;76.51
50518;BME280;37075;44.084;2.962;2024-02-26T08:59:08;96071.56;;;8.72;77.46
50518;BME280;37075;44.084;2.962;2024-02-26T09:01:55;96077.50;;;8.78;76.80
50518;BME280;37075;44.084;2.962;2024-02-26T09:04:41;96058.09;;;8.79;76.75
50518;BME280;37075;44.084;2.962;2024-02-26T09:07:27;96060.88;;;8.83;75.65
50518;BME280;37075;44.084;2.962;2024-02-26T09:10:14;96050.09;;;8.86;75.87
50518;BME280;37075;44.084;2.962;2024-02-26T09:13:00;96064.59;;;8.94;75.94
50518;BME280;37075;44.084;2.962;2024-02-26T09:15:46;96056.44;;;8.94;74.61
50518;BME280;37075;44.084;2.962;2024-02-26T09:18:32;96058.06;;;8.99;74.51
50518;BME280;37075;44.084;2.962;2024-02-26T09:21:18;96073.28;;;9.03;73.73
50518;BME280;37075;44.084;2.962;2024-02-26T09:24:07;96091.22;;;9.08;74.36
50518;BME280;37075;44.084;2.962;2024-02-26T09:26:55;96091.16;;;9.04;73.45
50518;BME280;37075;44.084;2.962;2024-02-26T09:29:41;96082.63;;;9.06;73.71
50518;BME280;37075;44.084;2.962;2024-02-26T09:32:27;96078.75;;;9.07;72.69
50518;BME280;37075;44.084;2.962;2024-02-26T09:35:13;96080.41;;;9.11;71.63
50518;BME280;37075;44.084;2.962;2024-02-26T09:37:59;96066.44;;;9.13;71.91
50518;BME280;37075;44.084;2.962;2024-02-26T09:40:46;96069.69;;;9.22;71.65
50518;BME280;37075;44.084;2.962;2024-02-26T09:43:34;96062.84;;;9.32;71.14
50518;BME280;37075;44.084;2.962;2024-02-26T09:46:21;96067.69;;;9.42;70.80
50518;BME280;37075;44.084;2.962;2024-02-26T09:49:08;96070.44;;;9.45;71.35
50518;BME280;37075;44.084;2.962;2024-02-26T09:51:57;96059.19;;;9.47;70.99
50518;BME280;37075;44.084;2.962;2024-02-26T09:54:47;96070.09;;;9.47;71.65
50518;BME280;37075;44.084;2.962;2024-02-26T09:57:33;96060.06;;;9.54;71.60
50518;BME280;37075;44.084;2.962;2024-02-26T10:00:22;96047.78;;;9.64;71.69
50518;BME280;37075;44.084;2.962;2024-02-26T10:03:12;96051.34;;;9.68;70.99
50518;BME280;37075;44.084;2.962;2024-02-26T10:06:00;96067.72;;;9.72;71.42
50518;BME280;37075;44.084;2.962;2024-02-26T10:08:49;96052.50;;;9.67;72.00
50518;BME280;37075;44.084;2.962;2024-02-26T10:11:36;96051.34;;;9.68;71.25
50518;BME280;37075;44.084;2.962;2024-02-26T10:14:23;96046.63;;;9.65;71.60
50518;BME280;37075;44.084;2.962;2024-02-26T10:17:11;96078.25;;;9.73;71.58
50518;BME280;37075;44.084;2.962;2024-02-26T10:20:11;96049.56;;;9.83;70.66
50518;BME280;37075;44.084;2.962;2024-02-26T10:22:58;96058.13;;;9.81;70.26
50518;BME280;37075;44.084;2.962;2024-02-26T10:25:52;96052.41;;;9.90;70.42
50518;BME280;37075;44.084;2.962;2024-02-26T10:28:39;96042.00;;;9.99;70.71
50518;BME280;37075;44.084;2.962;2024-02-26T10:31:25;96051.38;;;10.02;69.17
50518;BME280;37075;44.084;2.962;2024-02-26T10:34:12;96031.53;;;10.01;68.58
50518;BME280;37075;44.084;2.962;2024-02-26T10:37:01;96033.47;;;10.01;68.73
50518;BME280;37075;44.084;2.962;2024-02-26T10:39:47;96049.47;;;10.06;69.06
50518;BME280;37075;44.084;2.962;2024-02-26T10:42:33;96029.66;;;10.09;68.92
50518;BME280;37075;44.084;2.962;2024-02-26T10:45:19;96030.50;;;10.13;68.03
50518;BME280;37075;44.084;2.962;2024-02-26T10:48:09;96039.94;;;10.19;68.31
50518;BME280;37075;44.084;2.962;2024-02-26T10:50:57;96036.09;;;10.24;67.59
50518;BME280;37075;44.084;2.962;2024-02-26T10:53:45;96031.94;;;10.33;67.44
50518;BME280;37075;44.084;2.962;2024-02-26T10:56:33;96046.84;;;10.43;65.69
50518;BME280;37075;44.084;2.962;2024-02-26T10:59:20;96038.31;;;10.48;65.57
50518;BME280;37075;44.084;2.962;2024-02-26T11:02:09;96028.28;;;10.56;65.69
50518;BME280;37075;44.084;2.962;2024-02-26T11:04:56;96012.78;;;10.67;64.33
50518;BME280;37075;44.084;2.962;2024-02-26T11:07:44;96021.88;;;10.78;63.44
50518;BME280;37075;44.084;2.962;2024-02-26T11:10:31;96026.19;;;10.82;62.75
50518;BME280;37075;44.084;2.962;2024-02-26T11:13:19;96039.50;;;10.91;62.82
50518;BME280;37075;44.084;2.962;2024-02-26T11:16:06;96035.31;;;11.01;62.55
50518;BME280;37075;44.084;2.962;2024-02-26T11:18:53;96050.13;;;11.00;61.20
50518;BME280;37075;44.084;2.962;2024-02-26T11:21:40;96034.16;;;11.02;61.46
50518;BME280;37075;44.084;2.962;2024-02-26T11:24:29;96054.84;;;11.06;61.75
50518;BME280;37075;44.084;2.962;2024-02-26T11:27:17;96085.72;;;11.18;60.83
50518;BME280;37075;44.084;2.962;2024-02-26T11:30:05;96054.97;;;11.21;60.42
50518;BME280;37075;44.084;2.962;2024-02-26T11:32:55;96049.56;;;11.28;60.51
50518;BME280;37075;44.084;2.962;2024-02-26T11:35:41;96054.31;;;11.38;60.54
50518;BME280;37075;44.084;2.962;2024-02-26T11:38:27;96058.28;;;11.48;60.05
50518;BME280;37075;44.084;2.962;2024-02-26T11:41:15;96035.31;;;11.52;60.17
50518;BME280;37075;44.084;2.962;2024-02-26T11:44:02;96029.88;;;11.56;60.12
50518;BME280;37075;44.084;2.962;2024-02-26T11:46:51;96040.81;;;11.63;58.23
50518;BME280;37075;44.084;2.962;2024-02-26T11:49:37;96039.25;;;11.58;58.74
50518;BME280;37075;44.084;2.962;2024-02-26T11:52:24;96032.63;;;11.59;59.29
50518;BME280;37075;44.084;2.962;2024-02-26T11:55:09;96045.50;;;11.62;59.36
50518;BME280;37075;44.084;2.962;2024-02-26T11:57:56;96051.38;;;11.68;58.40
50518;BME280;37075;44.084;2.962;2024-02-26T12:00:42;96027.19;;;11.70;58.19
50518;BME280;37075;44.084;2.962;2024-02-26T12:03:29;96036.59;;;11.72;58.27
50518;BME280;37075;44.084;2.962;2024-02-26T12:06:15;96036.66;;;11.80;58.32
50518;BME280;37075;44.084;2.962;2024-02-26T12:09:01;96021.47;;;11.86;58.26
50518;BME280;37075;44.084;2.962;2024-02-26T12:11:48;96039.81;;;11.85;57.66
50518;BME280;37075;44.084;2.962;2024-02-26T12:14:37;96032.66;;;11.70;58.63
50518;BME280;37075;44.084;2.962;2024-02-26T12:17:25;96031.41;;;11.53;59.58
50518;BME280;37075;44.084;2.962;2024-02-26T12:20:13;96042.69;;;11.48;60.18
50518;BME280;37075;44.084;2.962;2024-02-26T12:22:59;96028.22;;;11.44;60.83
50518;BME280;37075;44.084;2.962;2024-02-26T12:25:45;95999.81;;;11.49;60.67
50518;BME280;37075;44.084;2.962;2024-02-26T12:28:32;96000.59;;;11.53;60.22
50518;BME280;37075;44.084;2.962;2024-02-26T12:31:20;96006.19;;;11.74;60.40
50518;BME280;37075;44.084;2.962;2024-02-26T12:34:06;96007.13;;;11.99;60.75
50518;BME280;37075;44.084;2.962;2024-02-26T12:36:54;96026.69;;;12.16;58.24
50518;BME280;37075;44.084;2.962;2024-02-26T12:39:40;96003.69;;;12.27;56.42
50518;BME280;37075;44.084;2.962;2024-02-26T12:42:26;96007.22;;;12.31;55.93
50518;BME280;37075;44.084;2.962;2024-02-26T12:45:13;95999.38;;;12.23;55.52
50518;BME280;37075;44.084;2.962;2024-02-26T12:48:02;95992.38;;;12.25;56.25
50518;BME280;37075;44.084;2.962;2024-02-26T12:50:50;95999.78;;;12.28;56.65
50518;BME280;37075;44.084;2.962;2024-02-26T12:53:37;95997.84;;;12.40;55.70
50518;BME280;37075;44.084;2.962;2024-02-26T12:56:25;95994.38;;;12.50;54.81
50518;BME280;37075;44.084;2.962;2024-02-26T12:59:12;95993.56;;;12.46;54.77
50518;BME280;37075;44.084;2.962;2024-02-26T13:01:59;95994.75;;;12.45;55.56
50518;BME280;37075;44.084;2.962;2024-02-26T13:04:47;95985.38;;;12.46;54.83
50518;BME280;37075;44.084;2.962;2024-02-26T13:07:33;95986.13;;;12.35;54.51
50518;BME280;37075;44.084;2.962;2024-02-26T13:10:20;95988.09;;;12.31;54.59
50518;BME280;37075;44.084;2.962;2024-02-26T13:13:05;95999.78;;;12.28;54.75
50518;BME280;37075;44.084;2.962;2024-02-26T13:16:01;95983.72;;;12.13;54.05
50518;BME280;37075;44.084;2.962;2024-02-26T13:18:47;95992.69;;;12.10;55.43
50518;BME280;37075;44.084;2.962;2024-02-26T13:21:34;95978.59;;;11.97;55.60
50518;BME280;37075;44.084;2.962;2024-02-26T13:24:20;95985.22;;;11.96;57.03
50518;BME280;37075;44.084;2.962;2024-02-26T13:27:07;95981.38;;;12.08;57.23
50518;BME280;37075;44.084;2.962;2024-02-26T13:30:09;95969.69;;;12.21;57.07
50518;BME280;37075;44.084;2.962;2024-02-26T13:32:55;95977.94;;;12.39;56.30
50518;BME280;37075;44.084;2.962;2024-02-26T13:35:41;95973.66;;;12.45;57.24
50518;BME280;37075;44.084;2.962;2024-02-26T13:38:28;95976.03;;;12.54;58.09
50518;BME280;37075;44.084;2.962;2024-02-26T13:41:14;95974.84;;;12.51;57.96
50518;BME280;37075;44.084;2.962;2024-02-26T13:44:00;95966.63;;;12.44;58.11
50518;BME280;37075;44.084;2.962;2024-02-26T13:46:46;95961.16;;;12.48;57.92
50518;BME280;37075;44.084;2.962;2024-02-26T13:49:33;95959.63;;;12.68;58.73
50518;BME280;37075;44.084;2.962;2024-02-26T13:52:19;95960.41;;;12.83;57.08
50518;BME280;37075;44.084;2.962;2024-02-26T13:55:07;95954.94;;;12.97;56.29
50518;BME280;37075;44.084;2.962;2024-02-26T13:57:54;95964.34;;;13.03;54.65
50518;BME280;37075;44.084;2.962;2024-02-26T14:00:40;95956.50;;;12.98;54.75
50518;BME280;37075;44.084;2.962;2024-02-26T14:03:26;95958.84;;;12.96;54.73
50518;BME280;37075;44.084;2.962;2024-02-26T14:06:12;95966.66;;;12.90;54.25
50518;BME280;37075;44.084;2.962;2024-02-26T14:08:58;95961.97;;;12.84;53.91
50518;BME280;37075;44.084;2.962;2024-02-26T14:11:46;95955.72;;;12.76;53.75
50518;BME280;37075;44.084;2.962;2024-02-26T14:14:32;95956.50;;;12.73;53.54
50518;BME280;37075;44.084;2.962;2024-02-26T14:17:21;95952.97;;;12.62;53.73
50518;BME280;37075;44.084;2.962;2024-02-26T14:20:08;95949.84;;;12.67;53.79
50518;BME280;37075;44.084;2.962;2024-02-26T14:22:54;95951.41;;;12.72;53.87
50518;BME280;37075;44.084;2.962;2024-02-26T14:25:40;95951.81;;;12.81;53.37
50518;BME280;37075;44.084;2.962;2024-02-26T14:28:27;95954.91;;;13.01;53.87
50518;BME280;37075;44.084;2.962;2024-02-26T14:31:17;95960.41;;;13.18;53.02
50518;BME280;37075;44.084;2.962;2024-02-26T14:34:03;95961.97;;;13.26;52.50
50518;BME280;37075;44.084;2.962;2024-02-26T14:36:49;95974.88;;;13.26;52.21
50518;BME280;37075;44.084;2.962;2024-02-26T14:39:35;95979.56;;;13.25;51.95
50518;BME280;37075;44.084;2.962;2024-02-26T14:42:20;95975.66;;;13.30;51.66
50518;BME280;37075;44.084;2.962;2024-02-26T14:45:10;95965.13;;;13.29;51.66
50518;BME280;37075;44.084;2.962;2024-02-26T14:47:56;95961.97;;;13.23;51.04
50518;BME280;37075;44.084;2.962;2024-02-26T14:50:41;95974.47;;;13.24;51.68
50518;BME280;37075;44.084;2.962;2024-02-26T14:53:28;95972.16;;;13.22;51.51
50518;BME280;37075;44.084;2.962;2024-02-26T14:56:14;95968.63;;;13.25;51.95
50518;BME280;37075;44.084;2.962;2024-02-26T14:59:00;95970.59;;;13.32;52.29
50518;BME280;37075;44.084;2.962;2024-02-26T15:01:47;95972.56;;;13.28;50.49
50518;BME280;37075;44.084;2.962;2024-02-26T15:04:33;95980.75;;;13.24;51.12
50518;BME280;37075;44.084;2.962;2024-02-26T15:07:20;95976.81;;;13.25;50.56
50518;BME280;37075;44.084;2.962;2024-02-26T15:10:07;95981.91;;;13.27;50.36
50518;BME280;37075;44.084;2.962;2024-02-26T15:12:53;95981.13;;;13.26;50.77
50518;BME280;37075;44.084;2.962;2024-02-26T15:15:39;95979.16;;;13.27;50.37
50518;BME280;37075;44.084;2.962;2024-02-26T15:18:27;95972.16;;;13.30;50.85
50518;BME280;37075;44.084;2.962;2024-02-26T15:21:13;95971.38;;;13.29;50.03
50518;BME280;37075;44.084;2.962;2024-02-26T15:23:59;95974.47;;;13.38;50.59
50518;BME280;37075;44.084;2.962;2024-02-26T15:26:45;95961.56;;;13.42;50.18
50518;BME280;37075;44.084;2.962;2024-02-26T15:29:32;95970.94;;;13.41;50.70
50518;BME280;37075;44.084;2.962;2024-02-26T15:32:18;95972.13;;;13.37;49.82
50518;BME280;37075;44.084;2.962;2024-02-26T15:35:06;95970.94;;;13.41;50.11
50518;BME280;37075;44.084;2.962;2024-02-26T15:37:51;95968.16;;;13.52;50.16
50518;BME280;37075;44.084;2.962;2024-02-26T15:40:37;95969.75;;;13.56;50.40
50518;BME280;37075;44.084;2.962;2024-02-26T15:43:23;95966.19;;;13.67;49.90
50518;BME280;37075;44.084;2.962;2024-02-26T15:46:09;95972.44;;;13.67;49.00
50518;BME280;37075;44.084;2.962;2024-02-26T15:48:55;95968.53;;;13.68;49.23
50518;BME280;37075;44.084;2.962;2024-02-26T15:51:42;95968.56;;;13.57;48.54
50518;BME280;37075;44.084;2.962;2024-02-26T15:54:28;95963.88;;;13.54;48.74
50518;BME280;37075;44.084;2.962;2024-02-26T15:57:14;95961.53;;;13.49;48.67
50518;BME280;37075;44.084;2.962;2024-02-26T16:00:02;95954.13;;;13.39;48.37
50518;BME280;37075;44.084;2.962;2024-02-26T16:02:57;95970.19;;;13.26;48.04
50518;BME280;37075;44.084;2.962;2024-02-26T16:05:43;95972.16;;;13.19;48.62
50518;BME280;37075;44.084;2.962;2024-02-26T16:08:30;95971.34;;;13.11;48.80
50518;BME280;37075;44.084;2.962;2024-02-26T16:11:18;95969.00;;;12.99;48.45
50518;BME280;37075;44.084;2.962;2024-02-26T16:14:21;95981.13;;;12.94;48.77
50518;BME280;37075;44.084;2.962;2024-02-26T16:17:13;95993.63;;;12.88;49.17
50518;BME280;37075;44.084;2.962;2024-02-26T16:20:02;95985.03;;;13.01;50.12
50518;BME280;37075;44.084;2.962;2024-02-26T16:22:49;95992.88;;;13.20;50.15
50518;BME280;37075;44.084;2.962;2024-02-26T16:25:36;95988.97;;;13.28;49.80
50518;BME280;37075;44.084;2.962;2024-02-26T16:28:23;95981.53;;;13.25;48.79
50518;BME280;37075;44.084;2.962;2024-02-26T16:31:10;95989.34;;;13.19;48.79
50518;BME280;37075;44.084;2.962;2024-02-26T16:33:57;95995.22;;;13.21;49.24
50518;BME280;37075;44.084;2.962;2024-02-26T16:36:43;95998.75;;;13.22;49.36
50518;BME280;37075;44.084;2.962;2024-02-26T16:39:29;96002.25;;;13.22;49.73
50518;BME280;37075;44.084;2.962;2024-02-26T16:42:16;96002.66;;;13.21;50.09
50518;BME280;37075;44.084;2.962;2024-02-26T16:45:03;96011.66;;;13.18;50.49
50518;BME280;37075;44.084;2.962;2024-02-26T16:47:49;95999.91;;;13.14;50.70
50518;BME280;37075;44.084;2.962;2024-02-26T16:50:35;96001.47;;;13.04;50.54
50518;BME280;37075;44.084;2.962;2024-02-26T16:53:21;96002.63;;;12.96;50.37
50518;BME280;37075;44.084;2.962;2024-02-26T16:56:09;96008.88;;;12.89;50.47
50518;BME280;37075;44.084;2.962;2024-02-26T16:58:56;96015.91;;;12.87;50.95
50518;BME280;37075;44.084;2.962;2024-02-26T17:01:44;96016.31;;;12.85;51.28
50518;BME280;37075;44.084;2.962;2024-02-26T17:04:31;96014.34;;;12.82;51.74
50518;BME280;37075;44.084;2.962;2024-02-26T17:07:17;96021.78;;;12.78;51.97
50518;BME280;37075;44.084;2.962;2024-02-26T17:10:04;96023.69;;;12.74;52.16
50518;BME280;37075;44.084;2.962;2024-02-26T17:12:50;96020.19;;;12.70;52.23
50518;BME280;37075;44.084;2.962;2024-02-26T17:15:38;96028.38;;;12.66;52.46
50518;BME280;37075;44.084;2.962;2024-02-26T17:18:24;96031.13;;;12.63;52.75
50518;BME280;37075;44.084;2.962;2024-02-26T17:21:10;96032.28;;;12.58;53.18
50518;BME280;37075;44.084;2.962;2024-02-26T17:23:56;96043.22;;;12.55;53.35
50518;BME280;37075;44.084;2.962;2024-02-26T17:26:45;96046.34;;;12.50;53.67
50518;BME280;37075;44.084;2.962;2024-02-26T17:29:31;96050.22;;;12.45;53.98
50518;BME280;37075;44.084;2.962;2024-02-26T17:32:20;96054.09;;;12.41;54.21
50518;BME280;37075;44.084;2.962;2024-02-26T17:35:07;96053.31;;;12.37;54.49
50518;BME280;37075;44.084;2.962;2024-02-26T17:37:58;96050.19;;;12.31;54.45
50518;BME280;37075;44.084;2.962;2024-02-26T17:40:45;96052.50;;;12.25;54.91
50518;BME280;37075;44.084;2.962;2024-02-26T17:43:31;96061.06;;;12.20;55.32
50518;BME280;37075;44.084;2.962;2024-02-26T17:46:17;96054.00;;;12.16;55.59
50518;BME280;37075;44.084;2.962;2024-02-26T17:49:05;96063.38;;;12.11;55.65
50518;BME280;37075;44.084;2.962;2024-02-26T17:51:51;96068.41;;;12.06;56.00
50518;BME280;37075;44.084;2.962;2024-02-26T17:54:38;96068.38;;;11.98;56.10
50518;BME280;37075;44.084;2.962;2024-02-26T17:57:24;96072.25;;;11.94;56.44
50518;BME280;37075;44.084;2.962;2024-02-26T18:00:11;96075.34;;;11.89;56.43
50518;BME280;37075;44.084;2.962;2024-02-26T18:02:57;96078.84;;;11.86;56.57
50518;BME280;37075;44.084;2.962;2024-02-26T18:05:44;96076.47;;;11.81;56.89
50518;BME280;37075;44.084;2.962;2024-02-26T18:08:30;96081.09;;;11.77;56.98
50518;BME280;37075;44.084;2.962;2024-02-26T18:11:16;96092.75;;;11.70;57.20
50518;BME280;37075;44.084;2.962;2024-02-26T18:14:03;96098.56;;;11.65;57.33
50518;BME280;37075;44.084;2.962;2024-02-26T18:16:49;96111.75;;;11.52;57.95
50518;BME280;37075;44.084;2.962;2024-02-26T18:19:34;96117.56;;;11.47;58.40
50518;BME280;37075;44.084;2.962;2024-02-26T18:22:22;96121.00;;;11.40;58.43
50518;BME280;37075;44.084;2.962;2024-02-26T18:25:09;96128.75;;;11.35;58.67
50518;BME280;37075;44.084;2.962;2024-02-26T18:27:55;96126.03;;;11.35;58.67
50518;BME280;37075;44.084;2.962;2024-02-26T18:30:41;96127.19;;;11.34;58.98
50518;BME280;37075;44.084;2.962;2024-02-26T18:33:30;96136.94;;;11.31;59.01
50518;BME280;37075;44.084;2.962;2024-02-26T18:36:16;96143.16;;;11.28;59.24
50518;BME280;37075;44.084;2.962;2024-02-26T18:39:09;96149.31;;;11.22;59.65
50518;BME280;37075;44.084;2.962;2024-02-26T18:41:55;96158.97;;;11.12;59.95
50518;BME280;37075;44.084;2.962;2024-02-26T18:44:42;96168.56;;;10.95;60.12
50518;BME280;37075;44.084;2.962;2024-02-26T18:47:27;96172.69;;;10.82;59.42
50518;BME280;37075;44.084;2.962;2024-02-26T18:50:15;96173.25;;;10.65;60.33
50518;BME280;37075;44.084;2.962;2024-02-26T18:53:00;96169.94;;;10.48;61.06
50518;BME280;37075;44.084;2.962;2024-02-26T18:55:48;96170.91;;;10.33;62.69
50518;BME280;37075;44.084;2.962;2024-02-26T18:58:34;96175.56;;;10.33;61.93
50518;BME280;37075;44.084;2.962;2024-02-26T19:01:20;96162.72;;;10.33;61.70
50518;BME280;37075;44.084;2.962;2024-02-26T19:04:06;96176.69;;;10.28;61.56
50518;BME280;37075;44.084;2.962;2024-02-26T19:06:52;96180.69;;;10.11;61.83
50518;BME280;37075;44.084;2.962;2024-02-26T19:09:38;96180.22;;;10.06;61.57
50518;BME280;37075;44.084;2.962;2024-02-26T19:12:27;96188.34;;;10.02;61.70
50518;BME280;37075;44.084;2.962;2024-02-26T19:15:13;96190.63;;;9.97;61.88
50518;BME280;37075;44.084;2.962;2024-02-26T19:18:01;96195.28;;;9.96;62.38
50518;BME280;37075;44.084;2.962;2024-02-26T19:20:48;96189.41;;;9.94;62.47
50518;BME280;37075;44.084;2.962;2024-02-26T19:23:34;96196.78;;;9.94;62.65
50518;BME280;37075;44.084;2.962;2024-02-26T19:26:20;96196.38;;;9.92;62.93
50518;BME280;37075;44.084;2.962;2024-02-26T19:29:08;96196.38;;;9.92;63.04
50518;BME280;37075;44.084;2.962;2024-02-26T19:31:54;96194.03;;;9.90;63.04
50518;BME280;37075;44.084;2.962;2024-02-26T19:34:40;96199.03;;;9.88;63.42
50518;BME280;37075;44.084;2.962;2024-02-26T19:37:27;96215.31;;;9.84;63.41
50518;BME280;37075;44.084;2.962;2024-02-26T19:40:14;96215.19;;;9.77;63.67
50518;BME280;37075;44.084;2.962;2024-02-26T19:43:00;96216.66;;;9.71;63.84
50518;BME280;37075;44.084;2.962;2024-02-26T19:45:49;96217.03;;;9.70;63.94
50518;BME280;37075;44.084;2.962;2024-02-26T19:48:35;96220.47;;;9.67;64.42
50518;BME280;37075;44.084;2.962;2024-02-26T19:51:22;96226.94;;;9.58;64.89
50518;BME280;37075;44.084;2.962;2024-02-26T19:54:08;96221.06;;;9.56;64.60
50518;BME280;37075;44.084;2.962;2024-02-26T19:56:54;96236.19;;;9.54;64.62
50518;BME280;37075;44.084;2.962;2024-02-26T19:59:40;96243.09;;;9.48;65.41
50518;BME280;37075;44.084;2.962;2024-02-26T20:02:27;96250.34;;;9.40;65.95
50518;BME280;37075;44.084;2.962;2024-02-26T20:05:13;96246.50;;;9.41;65.49
50518;BME280;37075;44.084;2.962;2024-02-26T20:08:00;96252.28;;;9.40;65.51
50518;BME280;37075;44.084;2.962;2024-02-26T20:10:45;96255.00;;;9.40;65.44
50518;BME280;37075;44.084;2.962;2024-02-26T20:13:35;96266.59;;;9.37;65.71
50518;BME280;37075;44.084;2.962;2024-02-26T20:16:22;96265.03;;;9.36;65.82
50518;BME280;37075;44.084;2.962;2024-02-26T20:19:10;96279.06;;;9.38;65.70
50518;BME280;37075;44.084;2.962;2024-02-26T20:21:57;96270.91;;;9.38;65.81
50518;BME280;37075;44.084;2.962;2024-02-26T20:24:44;96274.75;;;9.37;66.03
50518;BME280;37075;44.084;2.962;2024-02-26T20:27:31;96286.44;;;9.37;66.03
50518;BME280;37075;44.084;2.962;2024-02-26T20:30:17;96280.66;;;9.39;66.12
50518;BME280;37075;44.084;2.962;2024-02-26T20:33:04;96293.09;;;9.40;66.19
50518;BME280;37075;44.084;2.962;2024-02-26T20:35:52;96297.03;;;9.42;66.33
50518;BME280;37075;44.084;2.962;2024-02-26T20:38:38;96307.94;;;9.42;66.26
50518;BME280;37075;44.084;2.962;2024-02-26T20:41:24;96313.38;;;9.42;66.36
50518;BME280;37075;44.084;2.962;2024-02-26T20:44:10;96318.03;;;9.42;66.46
50518;BME280;37075;44.084;2.962;2024-02-26T20:46:57;96316.09;;;9.42;66.53
50518;BME280;37075;44.084;2.962;2024-02-26T20:49:43;96319.22;;;9.44;66.56
50518;BME280;37075;44.084;2.962;2024-02-26T20:52:31;96320.03;;;9.45;66.61
50518;BME280;37075;44.084;2.962;2024-02-26T20:55:17;96325.88;;;9.47;66.65
50518;BME280;37075;44.084;2.962;2024-02-26T20:58:03;96332.13;;;9.47;66.66
50518;BME280;37075;44.084;2.962;2024-02-26T21:00:49;96333.69;;;9.48;66.84
50518;BME280;37075;44.084;2.962;2024-02-26T21:03:35;96339.91;;;9.49;66.63
50518;BME280;37075;44.084;2.962;2024-02-26T21:06:21;96343.00;;;9.47;66.93
50518;BME280;37075;44.084;2.962;2024-02-26T21:09:09;96343.00;;;9.47;66.87
50518;BME280;37075;44.084;2.962;2024-02-26T21:11:55;96343.00;;;9.47;66.86
50518;BME280;37075;44.084;2.962;2024-02-26T21:14:41;96352.75;;;9.48;66.96
50518;BME280;37075;44.084;2.962;2024-02-26T21:17:27;96347.66;;;9.47;66.99
50518;BME280;37075;44.084;2.962;2024-02-26T21:20:14;96344.94;;;9.47;67.08
50518;BME280;37075;44.084;2.962;2024-02-26T21:23:04;96347.66;;;9.47;67.15
50518;BME280;37075;44.084;2.962;2024-02-26T21:25:52;96352.31;;;9.46;67.22
50518;BME280;37075;44.084;2.962;2024-02-26T21:28:38;96360.47;;;9.46;67.16
50518;BME280;37075;44.084;2.962;2024-02-26T21:31:26;96357.34;;;9.44;67.19
50518;BME280;37075;44.084;2.962;2024-02-26T21:34:12;96358.53;;;9.47;67.42
